Time;durP1;ratioP1;P1;durP2;ratioP2;P2;SDS_P1;SDS_P2;PMS_P1;PMS_P2;Temp;Humidity;BMP_temperature;BMP_pressure;BME280_temperature;BME280_humidity;BME280_pressure;Samples;Min_cycle;Max_cycle;Signal;HPM_P1;HPM_P2
2021/08/04 00:02:06;;;;;;;0.30;0.30;;;16.70;90.60;;;19.82;75.46;101339.84;4405592;39;97714;-76
2021/08/04 00:05:11;;;;;;;0.05;0.05;;;16.60;90.60;;;19.81;75.78;101338.22;4413102;39;96521;-76
2021/08/04 00:08:15;;;;;;;0.25;0.25;;;16.60;90.60;;;19.75;75.03;101339.63;4396521;39;96983;-76
2021/08/04 00:11:21;;;;;;;0.20;0.20;;;16.60;90.60;;;19.65;75.75;101335.47;4400503;39;97077;-76
2021/08/04 00:14:24;;;;;;;0.30;0.30;;;16.60;90.60;;;19.71;75.75;101334.09;4415923;39;98899;-76
2021/08/04 00:17:29;;;;;;;1.10;0.47;;;16.50;90.60;;;19.70;75.56;101337.16;4415119;39;97521;-76
2021/08/04 00:20:32;;;;;;;0.00;0.00;;;16.50;90.60;;;19.78;75.60;101338.91;4399137;39;97348;-76
2021/08/04 00:23:36;;;;;;;2.28;0.95;;;16.50;90.60;;;19.76;75.14;101335.75;4413013;39;97605;-76
2021/08/04 00:26:41;;;;;;;0.00;0.00;;;16.40;90.60;;;19.73;74.90;101333.75;4403160;39;97882;-77
2021/08/04 00:29:45;;;;;;;0.43;0.43;;;16.40;90.60;;;19.72;75.31;101335.69;4413899;39;99181;-76
2021/08/04 00:32:53;;;;;;;0.00;0.00;;;16.40;90.60;;;19.77;74.71;101331.91;4404742;39;96732;-76
2021/08/04 00:35:58;;;;;;;1.45;0.80;;;16.40;90.60;;;19.78;73.96;101333.47;4382653;39;98275;-77
2021/08/04 00:39:04;;;;;;;0.25;0.25;;;16.40;90.60;;;19.74;75.02;101329.88;4400808;39;96857;-76
2021/08/04 00:42:11;;;;;;;0.10;0.10;;;16.40;90.60;;;19.62;75.01;101340.84;4403302;39;96835;-76
2021/08/04 00:45:15;;;;;;;0.00;0.00;;;16.40;90.60;;;19.56;75.01;101339.50;4409866;39;97237;-76
2021/08/04 00:48:19;;;;;;;0.15;0.15;;;16.40;90.60;;;19.51;75.21;101337.81;4396964;39;98096;-76
2021/08/04 00:51:23;;;;;;;1.13;0.68;;;16.40;90.90;;;19.47;75.18;101345.09;4416019;39;97807;-77
2021/08/04 00:54:27;;;;;;;0.10;0.10;;;16.30;90.60;;;19.41;75.70;101345.66;4405135;39;98546;-76
2021/08/04 00:57:32;;;;;;;;;;;16.30;90.60;;;19.48;74.93;101343.13;4392589;39;96671;-76
2021/08/04 01:00:46;;;;;;;0.15;0.15;;;16.30;90.50;;;19.47;75.72;101353.25;4405387;39;96815;-76
2021/08/04 01:03:57;;;;;;;0.35;0.35;;;16.30;90.60;;;19.48;74.75;101340.41;4402839;39;96789;-76
2021/08/04 01:07:12;;;;;;;2.65;0.35;;;16.30;90.60;;;19.46;74.75;101348.13;4404024;39;97531;-76
2021/08/04 01:10:29;;;;;;;1.02;0.70;;;16.30;90.60;;;19.45;75.23;101346.56;4411340;39;96591;-77
2021/08/04 01:13:42;;;;;;;0.00;0.00;;;16.20;90.60;;;19.39;75.04;101351.47;4386025;39;98036;-77
2021/08/04 01:16:49;;;;;;;3.15;1.27;;;16.20;90.60;;;19.31;75.61;101351.59;4412737;39;97630;-77
2021/08/04 01:20:13;;;;;;;0.32;0.22;;;16.20;90.50;;;19.27;74.95;101345.28;4408077;39;97430;-76
2021/08/04 01:23:33;;;;;;;0.10;0.10;;;16.20;90.80;;;19.23;75.34;101349.81;4398260;39;98008;-76
2021/08/04 01:26:42;;;;;;;0.20;0.20;;;16.10;90.50;;;19.21;75.55;101346.63;4403845;39;98047;-76
2021/08/04 01:29:49;;;;;;;0.10;0.10;;;16.10;90.60;;;19.17;75.44;101349.25;4404136;39;97738;-76
2021/08/04 01:32:53;;;;;;;2.47;0.60;;;16.00;90.60;;;19.16;75.49;101346.88;4414905;39;96886;-76
2021/08/04 01:36:00;;;;;;;0.43;0.43;;;16.00;90.60;;;19.16;75.23;101349.59;4412745;39;97863;-76
2021/08/04 01:39:07;;;;;;;0.85;0.47;;;16.00;90.60;;;19.10;75.21;101346.31;4395697;39;98866;-76
2021/08/04 01:42:13;;;;;;;0.28;0.28;;;15.90;90.60;;;19.11;75.29;101349.81;4414061;39;97073;-76
2021/08/04 01:45:18;;;;;;;0.20;0.10;;;15.90;90.70;;;19.07;75.19;101349.72;4403632;39;96635;-76
2021/08/04 01:48:24;;;;;;;1.02;0.38;;;15.90;90.70;;;18.98;75.14;101342.81;4395133;39;96809;-77
2021/08/04 01:51:29;;;;;;;0.88;0.82;;;15.80;90.70;;;18.86;75.53;101342.81;4408824;39;96658;-76
2021/08/04 01:54:33;;;;;;;0.22;0.22;;;15.80;90.70;;;18.81;76.18;101340.34;4397332;39;97020;-76
2021/08/04 01:57:40;;;;;;;0.25;0.25;;;15.70;90.70;;;18.74;75.92;101342.84;4410891;39;97295;-77
2021/08/04 02:00:45;;;;;;;0.38;0.38;;;15.70;90.70;;;18.67;75.79;101344.56;4395291;39;97688;-77
2021/08/04 02:03:49;;;;;;;0.30;0.30;;;15.60;90.70;;;18.55;76.76;101331.78;4413570;39;99308;-77
2021/08/04 02:07:00;;;;;;;;;;;15.60;90.70;;;18.54;75.93;101332.91;4415228;39;97910;-77
2021/08/04 02:10:13;;;;;;;0.10;0.10;;;15.50;90.80;;;18.49;76.33;101337.78;4413745;39;97982;-77
2021/08/04 02:13:30;;;;;;;0.65;0.65;;;15.50;90.80;;;18.42;76.07;101338.34;4413870;39;97061;-77
2021/08/04 02:17:04;;;;;;;0.15;0.15;;;15.40;90.80;;;18.39;76.06;101332.78;4383782;39;98569;-77
2021/08/04 02:20:19;;;;;;;1.45;0.63;;;15.40;90.80;;;18.30;76.24;101321.25;4411705;39;96495;-77
2021/08/04 02:23:36;;;;;;;0.50;0.30;;;15.30;90.90;;;18.26;76.08;101323.03;4418609;39;96836;-77
2021/08/04 02:26:41;;;;;;;0.10;0.10;;;15.20;90.90;;;18.18;76.43;101322.00;4387212;39;98919;-77
2021/08/04 02:29:51;;;;;;;0.32;0.32;;;15.10;90.90;;;18.11;76.69;101321.78;4407450;39;97694;-77
2021/08/04 02:32:57;;;;;;;0.50;0.50;;;15.10;90.90;;;18.08;76.15;101319.75;4412774;39;97721;-77
2021/08/04 02:36:01;;;;;;;0.75;0.15;;;15.00;91.00;;;18.05;76.74;101331.28;4411436;39;96573;-77
2021/08/04 02:39:06;;;;;;;0.80;0.55;;;15.00;91.00;;;18.01;76.74;101330.34;4400306;39;96643;-77
2021/08/04 02:42:10;;;;;;;;;;;15.00;91.00;;;17.94;77.00;101329.34;4397995;39;97667;-77
2021/08/04 02:45:16;;;;;;;0.10;0.10;;;14.90;91.00;;;17.94;76.14;101329.34;4406482;39;98225;-77
2021/08/04 02:48:20;;;;;;;0.57;0.57;;;14.90;91.00;;;17.91;76.13;101327.28;4406294;39;97523;-77
2021/08/04 02:51:28;;;;;;;0.10;0.10;;;14.90;91.10;;;17.90;76.11;101334.63;4413954;39;97135;-77
2021/08/04 02:54:31;;;;;;;2.47;1.33;;;14.80;91.00;;;17.93;76.65;101336.66;4413493;39;100039;-77
2021/08/04 02:57:36;;;;;;;0.00;0.00;;;14.80;91.10;;;17.98;76.08;101336.44;4412241;39;97540;-77
2021/08/04 03:00:42;;;;;;;0.95;0.95;;;14.80;91.10;;;18.03;75.90;101333.53;4411916;39;97613;-77
2021/08/04 03:03:46;;;;;;;1.27;0.40;;;14.80;91.40;;;18.12;75.87;101331.50;4412842;39;97589;-77
2021/08/04 03:06:49;;;;;;;2.47;0.52;;;14.80;91.10;;;18.16;75.81;101337.84;4415089;39;97425;-77
2021/08/04 03:09:53;;;;;;;;;;;14.80;91.10;;;18.21;75.47;101337.63;4413979;39;97060;-76
2021/08/04 03:12:57;;;;;;;0.13;0.13;;;14.90;91.10;;;18.22;75.58;101331.06;4412351;39;97179;-76
2021/08/04 03:16:03;;;;;;;0.43;0.43;;;14.90;91.10;;;18.26;75.07;101329.28;4398070;39;97513;-77
2021/08/04 03:19:07;;;;;;;0.90;0.82;;;14.90;91.00;;;18.25;75.10;101330.38;4405260;39;97602;-77
2021/08/04 03:22:11;;;;;;;0.08;0.05;;;15.00;91.00;;;18.23;75.57;101340.00;4416847;39;96773;-77
2021/08/04 03:25:19;;;;;;;0.25;0.15;;;15.00;91.00;;;18.24;75.28;101334.22;4408681;39;96810;-77
2021/08/04 03:28:23;;;;;;;0.45;0.45;;;15.00;91.00;;;18.25;75.39;101335.03;4412041;39;98483;-77
2021/08/04 03:31:28;;;;;;;0.03;0.03;;;15.00;91.00;;;18.22;75.11;101339.19;4412389;39;96707;-77
2021/08/04 03:34:32;;;;;;;0.40;0.40;;;15.00;91.00;;;18.20;75.24;101348.81;4407975;39;96822;-77
2021/08/04 03:37:36;;;;;;;0.20;0.20;;;15.00;91.00;;;18.17;75.52;101336.72;4411169;39;97600;-77
2021/08/04 03:40:41;;;;;;;0.40;0.40;;;15.00;91.00;;;18.17;75.60;101338.66;4412607;39;96609;-77
2021/08/04 03:43:44;;;;;;;0.35;0.30;;;14.90;91.00;;;18.20;75.64;101348.81;4396536;39;97756;-77
2021/08/04 03:46:49;;;;;;;0.22;0.22;;;14.90;91.00;;;18.24;75.03;101342.34;4414418;39;97628;-77
2021/08/04 03:49:53;;;;;;;0.50;0.50;;;14.90;91.00;;;18.23;74.94;101345.44;4413149;39;98131;-77
2021/08/04 03:52:57;;;;;;;;;;;14.90;91.00;;;18.22;75.14;101339.19;4412999;39;97799;-77
2021/08/04 03:56:03;;;;;;;0.43;0.28;;;15.00;91.00;;;18.30;74.93;101334.84;4414431;39;96560;-77
2021/08/04 03:59:07;;;;;;;0.52;0.43;;;14.90;90.90;;;18.29;74.94;101335.97;4411641;39;98321;-77
2021/08/04 04:02:13;;;;;;;1.17;0.35;;;15.00;90.90;;;18.26;75.35;101342.03;4406640;39;97630;-77
2021/08/04 04:05:17;;;;;;;0.82;0.40;;;15.00;90.90;;;18.28;75.23;101337.09;4405313;39;96751;-77
2021/08/04 04:08:21;;;;;;;0.10;0.10;;;15.00;90.90;;;18.31;74.99;101345.31;4395525;39;98897;-77
2021/08/04 04:11:24;;;;;;;;;;;14.90;90.80;;;18.34;74.56;101339.25;4405863;39;98515;-77
2021/08/04 04:14:28;;;;;;;0.28;0.28;;;15.00;90.80;;;18.32;74.65;101346.94;4412289;39;97292;-77
2021/08/04 04:17:34;;;;;;;0.40;0.35;;;14.90;90.80;;;18.37;74.72;101341.28;4406196;39;97561;-77
2021/08/04 04:20:38;;;;;;;0.40;0.40;;;15.00;90.80;;;18.24;75.13;101344.28;4408103;39;98112;-77
2021/08/04 04:23:42;;;;;;;0.28;0.28;;;15.00;90.80;;;18.26;75.31;101348.28;4414724;39;96687;-77
2021/08/04 04:26:45;;;;;;;1.30;0.68;;;15.00;90.80;;;18.28;75.22;101345.22;4414125;39;97774;-77
2021/08/04 04:29:49;;;;;;;0.20;0.20;;;15.00;90.70;;;18.31;74.63;101355.41;4407607;39;96669;-77
2021/08/04 04:32:54;;;;;;;1.23;0.75;;;15.00;90.70;;;18.30;74.69;101346.47;4414317;39;97593;-77
2021/08/04 04:35:59;;;;;;;2.83;1.27;;;15.00;90.60;;;18.30;74.54;101349.16;4403497;39;99560;-77
2021/08/04 04:39:04;;;;;;;0.10;0.10;;;15.10;90.60;;;18.31;74.67;101347.28;4412233;39;98560;-77
2021/08/04 04:42:08;;;;;;;0.28;0.28;;;15.10;90.50;;;18.25;74.73;101345.88;4403136;39;96791;-77
2021/08/04 04:45:12;;;;;;;0.85;0.70;;;15.00;90.50;;;18.24;74.74;101355.16;4398535;39;96758;-77
2021/08/04 04:48:18;;;;;;;0.75;0.75;;;15.00;90.50;;;18.24;74.71;101347.78;4407076;39;97602;-77
2021/08/04 04:51:22;;;;;;;1.08;0.75;;;15.00;90.50;;;18.19;75.21;101358.09;4410928;39;96764;-77
2021/08/04 04:54:26;;;;;;;0.65;0.65;;;15.00;90.50;;;18.23;74.67;101348.91;4414765;39;97398;-77
2021/08/04 04:57:29;;;;;;;1.50;1.40;;;15.00;90.40;;;18.30;74.72;101357.31;4412006;39;96774;-77
2021/08/04 05:00:33;;;;;;;;;;;15.10;90.40;;;18.35;74.83;101357.13;4416412;39;97526;-76
2021/08/04 05:03:38;;;;;;;0.65;0.65;;;15.10;90.40;;;18.43;74.11;101348.06;4413190;39;97726;-76
2021/08/04 05:06:42;;;;;;;0.60;0.60;;;15.20;90.40;;;18.52;74.00;101356.88;4405277;39;96690;-77
2021/08/04 05:09:46;;;;;;;1.75;0.38;;;15.20;90.30;;;18.57;73.68;101353.94;4414269;39;97049;-77
2021/08/04 05:12:50;;;;;;;0.30;0.30;;;15.20;90.20;;;18.64;73.49;101365.03;4410392;39;96816;-77
2021/08/04 05:15:53;;;;;;;0.47;0.47;;;15.30;90.20;;;18.88;72.93;101369.66;4413142;39;97542;-77
2021/08/04 05:18:59;;;;;;;0.08;0.08;;;15.30;90.10;;;18.98;73.11;101370.75;4412199;39;97579;-77
2021/08/04 05:22:06;;;;;;;0.28;0.28;;;15.50;90.10;;;19.12;72.83;101364.97;4411330;39;97524;-77
2021/08/04 05:25:11;;;;;;;;;;;15.60;90.00;;;19.23;72.81;101380.47;4413829;39;97526;-77
2021/08/04 05:28:14;;;;;;;0.95;0.55;;;15.70;89.80;;;19.46;71.85;101388.91;4412149;39;97571;-77
2021/08/04 05:31:18;;;;;;;;;;;15.80;89.60;;;19.73;71.08;101380.78;4405721;39;100684;-77
2021/08/04 05:34:23;;;;;;;0.00;0.00;;;16.00;89.20;;;20.05;70.78;101392.53;4379539;39;97416;-77
2021/08/04 05:37:27;;;;;;;0.40;0.40;;;16.20;89.00;;;20.44;70.65;101391.63;4405778;39;98144;-77
2021/08/04 05:40:31;;;;;;;0.20;0.20;;;16.50;88.70;;;21.82;67.67;101390.47;4395661;39;98695;-77
2021/08/04 05:43:35;;;;;;;0.43;0.38;;;17.30;88.30;;;24.88;60.53;101392.28;4411958;39;97602;-77
2021/08/04 05:46:39;;;;;;;0.10;0.10;;;19.10;85.20;;;27.98;54.32;101383.47;4406784;39;97601;-77
2021/08/04 05:49:44;;;;;;;;;;;21.20;81.40;;;30.00;51.71;101386.16;4414388;39;97787;-77
2021/08/04 05:52:47;;;;;;;0.52;0.52;;;23.10;78.50;;;32.45;47.87;101389.28;4404371;39;97563;-78
2021/08/04 05:55:51;;;;;;;1.42;0.68;;;25.10;74.90;;;34.02;46.49;101380.53;4411825;39;96671;-79
2021/08/04 05:58:55;;;;;;;0.17;0.13;;;26.90;72.40;;;35.39;45.62;101385.75;4414888;39;97916;-78
2021/08/04 06:01:59;;;;;;;0.95;0.47;;;28.40;70.50;;;36.57;44.77;101383.81;4413252;39;96748;-78
2021/08/04 06:05:09;;;;;;;0.82;0.75;;;29.80;69.20;;;37.70;44.25;101385.91;4414009;39;97682;-78
2021/08/04 06:08:13;;;;;;;0.55;0.52;;;31.00;68.10;;;38.73;44.21;101374.78;4403864;39;97656;-78
2021/08/04 06:11:17;;;;;;;0.95;0.70;;;32.10;68.00;;;39.64;43.71;101379.13;4413004;39;96720;-78
2021/08/04 06:14:21;;;;;;;0.75;0.57;;;33.10;67.00;;;40.36;43.32;101384.53;4406692;39;96720;-79
2021/08/04 06:17:25;;;;;;;1.60;0.50;;;33.90;66.20;;;40.84;43.09;101384.97;4403024;39;97203;-79
2021/08/04 06:20:31;;;;;;;2.63;0.70;;;34.40;65.90;;;41.55;42.67;101372.41;4413301;39;96987;-79
2021/08/04 06:23:35;;;;;;;0.10;0.10;;;34.90;65.80;;;41.94;42.71;101370.66;4407606;39;97524;-76
2021/08/04 06:26:39;;;;;;;0.70;0.55;;;35.50;65.90;;;42.55;42.52;101368.22;4411193;39;97609;-77
2021/08/04 06:29:43;;;;;;;0.45;0.45;;;36.00;65.80;;;43.08;42.44;101371.72;4399524;39;97733;-77
2021/08/04 06:32:47;;;;;;;1.80;1.05;;;36.50;65.60;;;43.44;42.30;101368.72;4402564;39;96779;-77
2021/08/04 06:35:52;;;;;;;1.38;0.50;;;36.90;65.30;;;43.86;41.98;101357.13;4404708;39;97205;-77
2021/08/04 06:38:56;;;;;;;1.02;0.30;;;37.30;65.10;;;44.43;42.06;101371.41;4402315;39;97399;-77
2021/08/04 06:42:00;;;;;;;0.82;0.80;;;37.70;65.10;;;44.74;41.43;101367.41;4411709;39;97666;-77
2021/08/04 06:45:09;;;;;;;0.93;0.38;;;38.20;64.60;;;42.54;46.32;101367.44;4414039;39;97178;-77
2021/08/04 06:48:12;;;;;;;0.32;0.32;;;37.60;65.40;;;40.26;50.04;101357.88;4408904;39;97079;-77
2021/08/04 06:51:18;;;;;;;0.95;0.82;;;36.40;66.80;;;43.05;44.29;101356.56;4409001;39;97637;-77
2021/08/04 06:54:23;;;;;;;0.80;0.50;;;36.50;66.80;;;44.15;41.86;101365.03;4408102;39;97047;-77
2021/08/04 06:57:27;;;;;;;0.75;0.50;;;37.20;66.90;;;45.07;41.03;101371.59;4413905;39;97921;-78
2021/08/04 07:00:31;;;;;;;0.25;0.25;;;37.80;65.50;;;46.02;39.93;101363.84;4415031;39;98477;-78
2021/08/04 07:03:38;;;;;;;2.08;0.73;;;38.40;64.80;;;46.85;38.65;101367.22;4412373;39;97621;-78
2021/08/04 07:06:57;;;;;;;0.68;0.68;;;39.00;64.30;;;47.63;38.11;101359.03;4404939;39;96843;-78
2021/08/04 07:10:04;;;;;;;1.25;0.82;;;39.80;63.30;;;48.11;37.53;101344.44;4401431;39;96803;-78
2021/08/04 07:13:09;;;;;;;1.20;0.93;;;40.10;63.10;;;46.63;39.71;101364.69;4390435;39;96847;-78
2021/08/04 07:16:12;;;;;;;1.25;0.90;;;39.80;63.50;;;41.99;49.05;101361.47;4391627;39;96675;-78
2021/08/04 07:19:18;;;;;;;0.45;0.45;;;38.20;65.70;;;38.65;54.92;101363.16;4405151;39;98202;-77
2021/08/04 07:22:23;;;;;;;0.25;0.20;;;36.30;67.40;;;36.81;57.48;101368.00;4404627;39;96877;-77
2021/08/04 07:25:27;;;;;;;0.80;0.55;;;34.50;69.50;;;35.47;59.35;101375.88;4412185;39;99553;-76
2021/08/04 07:28:31;;;;;;;0.43;0.43;;;33.10;70.90;;;33.90;60.90;101375.72;4397625;39;97531;-77
2021/08/04 07:31:37;;;;;;;1.42;0.47;;;31.80;71.40;;;32.99;61.56;101375.59;4410761;39;97106;-76
2021/08/04 07:34:41;;;;;;;0.30;0.30;;;30.60;72.50;;;32.70;61.15;101378.34;4403654;39;97593;-76
2021/08/04 07:37:46;;;;;;;0.70;0.50;;;29.70;73.70;;;32.55;60.55;101377.13;4403137;39;96894;-76
2021/08/04 07:40:51;;;;;;;1.65;0.50;;;29.20;74.60;;;32.99;58.97;101383.91;4402165;39;97558;-77
2021/08/04 07:43:54;;;;;;;0.88;0.77;;;28.80;75.60;;;33.91;56.14;101380.84;4407050;39;98609;-77
2021/08/04 07:46:58;;;;;;;0.75;0.32;;;28.70;75.10;;;34.70;54.03;101364.75;4403411;39;97993;-74
2021/08/04 07:50:07;;;;;;;0.43;0.43;;;28.90;75.30;;;36.93;49.11;101369.84;4404717;39;98578;-73
2021/08/04 07:53:13;;;;;;;1.75;1.00;;;29.40;74.60;;;39.10;44.78;101376.03;4414197;39;97697;-74
2021/08/04 07:56:20;;;;;;;0.75;0.40;;;30.40;73.40;;;40.43;42.90;101374.97;4411510;39;97869;-75
2021/08/04 07:59:25;;;;;;;0.77;0.52;;;31.40;72.10;;;40.28;43.69;101379.84;4407076;39;96702;-75
2021/08/04 08:02:28;;;;;;;1.75;0.77;;;32.10;71.30;;;40.25;44.44;101378.03;4409070;39;97501;-75
2021/08/04 08:05:32;;;;;;;0.38;0.30;;;32.40;71.10;;;41.14;42.90;101377.84;4403203;39;97065;-75
2021/08/04 08:08:38;;;;;;;1.02;0.45;;;32.80;70.80;;;44.63;36.58;101373.09;4400205;39;96904;-75
2021/08/04 08:11:42;;;;;;;0.28;0.28;;;33.70;70.00;;;43.51;40.11;101364.56;4392647;39;96859;-75
2021/08/04 08:14:45;;;;;;;0.30;0.30;;;34.30;69.40;;;41.22;44.67;101372.06;4403373;39;97045;-75
2021/08/04 08:17:50;;;;;;;0.65;0.45;;;34.10;70.40;;;44.62;37.80;101368.75;4410519;39;97627;-74
2021/08/04 08:20:53;;;;;;;2.53;0.65;;;34.30;70.10;;;46.18;35.61;101363.66;4407510;39;96559;-73
2021/08/04 08:23:59;;;;;;;0.43;0.43;;;34.80;69.70;;;47.10;35.16;101355.25;4403103;39;97614;-74
2021/08/04 08:27:08;;;;;;;0.55;0.55;;;35.50;69.50;;;47.77;34.75;101360.59;4408613;39;98585;-74
2021/08/04 08:30:14;;;;;;;0.65;0.50;;;35.90;69.10;;;48.04;34.41;101348.69;4411042;39;96721;-74
2021/08/04 08:33:17;;;;;;;0.43;0.43;;;36.30;68.70;;;48.22;34.33;101349.91;4410642;39;98283;-74
2021/08/04 08:36:21;;;;;;;0.52;0.52;;;36.50;68.70;;;48.19;34.51;101351.75;4397906;39;97515;-74
2021/08/04 08:39:26;;;;;;;2.83;1.75;;;36.70;68.60;;;48.13;35.18;101347.50;4410894;39;97271;-74
2021/08/04 08:42:30;;;;;;;3.35;0.75;;;36.80;68.60;;;48.15;35.51;101339.94;4409625;39;96851;-75
2021/08/04 08:45:34;;;;;;;1.90;1.25;;;37.00;69.00;;;48.06;35.99;101351.75;4399773;39;97402;-74
2021/08/04 08:48:39;;;;;;;0.22;0.20;;;37.10;69.00;;;48.23;35.75;101351.41;4412844;39;97142;-74
2021/08/04 08:51:43;;;;;;;1.98;0.85;;;37.20;69.00;;;48.09;36.47;101338.53;4411446;39;97009;-74
2021/08/04 08:54:48;;;;;;;1.35;0.80;;;37.20;69.10;;;48.14;35.82;101337.66;4411206;39;98530;-74
2021/08/04 08:57:52;;;;;;;1.25;0.45;;;37.20;69.30;;;46.72;38.94;101338.75;4409325;39;97103;-74
2021/08/04 09:00:57;;;;;;;0.00;0.00;;;37.10;69.20;;;46.46;38.55;101332.16;4406057;39;96956;-73
2021/08/04 09:04:07;;;;;;;0.63;0.60;;;36.70;69.60;;;45.75;39.92;101331.66;4411204;39;97655;-73
2021/08/04 09:07:11;;;;;;;0.10;0.10;;;36.40;69.60;;;45.13;41.15;101338.38;4408159;39;97422;-73
2021/08/04 09:10:27;;;;;;;0.10;0.10;;;36.00;70.60;;;41.39;48.24;101325.16;4394351;39;97575;-73
2021/08/04 09:13:34;;;;;;;0.22;0.22;;;35.60;70.20;;;39.81;50.54;101335.22;4409646;39;98059;-73
2021/08/04 09:16:39;;;;;;;1.55;0.80;;;34.80;71.20;;;40.22;49.12;101337.63;4408936;39;97368;-73
2021/08/04 09:19:46;;;;;;;0.35;0.20;;;33.90;72.00;;;42.72;42.73;101338.78;4397214;39;97654;-73
2021/08/04 09:22:50;;;;;;;0.30;0.20;;;33.60;72.40;;;43.72;40.71;101324.28;4409172;39;97502;-73
2021/08/04 09:26:08;;;;;;;0.35;0.35;;;33.70;72.70;;;44.71;40.09;101328.81;4408459;39;98057;-74
2021/08/04 09:29:12;;;;;;;0.25;0.25;;;34.00;72.50;;;45.21;39.43;101333.66;4410861;39;97790;-73
2021/08/04 09:32:23;;;;;;;0.25;0.25;;;34.50;72.60;;;45.40;39.53;101320.38;4411234;39;97445;-72
2021/08/04 09:35:27;;;;;;;0.35;0.32;;;34.80;72.10;;;44.87;40.72;101333.66;4409908;39;96627;-74
2021/08/04 09:38:31;;;;;;;0.50;0.50;;;35.00;72.10;;;40.27;50.04;101334.13;4415440;39;97479;-73
2021/08/04 09:41:35;;;;;;;0.50;0.50;;;34.70;71.70;;;37.06;55.71;101320.16;4406730;39;97118;-73
2021/08/04 09:44:53;;;;;;;1.27;0.77;;;33.60;71.50;;;36.03;57.78;101321.41;4415570;39;97542;-73
2021/08/04 09:48:04;;;;;;;0.22;0.22;;;32.40;73.30;;;37.31;54.21;101325.38;4415748;39;98042;-74
2021/08/04 09:51:17;;;;;;;0.47;0.35;;;31.90;75.30;;;35.46;58.08;101330.50;4409072;39;99764;-74
2021/08/04 09:54:21;;;;;;;2.60;0.45;;;31.50;75.20;;;37.00;53.90;101332.47;4413878;39;97637;-72
2021/08/04 09:57:43;;;;;;;0.52;0.40;;;31.10;75.70;;;37.28;53.65;101326.34;4415031;39;96783;-73
2021/08/04 10:00:51;;;;;;;0.13;0.13;;;31.10;75.90;;;37.95;52.37;101326.72;4411767;39;96855;-73
2021/08/04 10:04:05;;;;;;;4.95;0.75;;;31.40;76.70;;;38.45;51.56;101315.41;4403177;39;97687;-72
2021/08/04 10:07:12;;;;;;;0.50;0.40;;;31.70;75.90;;;36.30;56.36;101307.56;4409229;39;97863;-72
2021/08/04 10:10:16;;;;;;;1.50;0.68;;;31.60;75.50;;;35.02;58.56;101317.78;4411284;39;97808;-72
2021/08/04 10:13:26;;;;;;;0.20;0.20;;;31.00;75.80;;;34.37;59.80;101308.59;4409975;39;97322;-73
2021/08/04 10:16:34;;;;;;;6.60;1.55;;;30.50;76.50;;;33.43;61.35;101319.94;4416718;39;96774;-73
2021/08/04 10:19:39;;;;;;;0.05;0.05;;;30.00;76.50;;;32.44;62.81;101312.78;4412929;39;96688;-73
2021/08/04 10:22:45;;;;;;;0.10;0.10;;;29.40;76.80;;;32.08;63.23;101311.31;4414460;39;96599;-73
2021/08/04 10:25:49;;;;;;;0.10;0.10;;;28.80;77.80;;;31.94;63.93;101311.66;4410939;39;98415;-74
2021/08/04 10:28:57;;;;;;;0.00;0.00;;;28.50;79.00;;;32.65;62.98;101312.22;4405276;39;97593;-73
2021/08/04 10:32:01;;;;;;;0.10;0.10;;;28.40;79.50;;;33.40;61.80;101308.94;4410230;39;97710;-73
2021/08/04 10:35:10;;;;;;;0.43;0.32;;;28.70;79.70;;;32.75;62.58;101308.41;4403075;39;96780;-73
2021/08/04 10:38:20;;;;;;;0.22;0.22;;;28.80;79.40;;;32.88;62.94;101294.56;4413721;39;97575;-73
2021/08/04 10:41:28;;;;;;;0.00;0.00;;;28.70;79.40;;;33.50;61.23;101299.50;4411198;39;97568;-73
2021/08/04 10:44:34;;;;;;;0.10;0.10;;;28.90;79.40;;;32.95;62.13;101305.47;4409729;39;97628;-73
2021/08/04 10:47:38;;;;;;;0.00;0.00;;;28.80;79.30;;;32.26;63.27;101303.38;4410123;39;97804;-73
2021/08/04 10:51:19;;;;;;;0.00;0.00;;;28.50;79.00;;;32.03;64.08;101297.22;4410634;39;97015;-73
2021/08/04 10:54:24;;;;;;;0.10;0.10;;;28.30;79.10;;;32.52;62.96;101302.28;4412219;39;97679;-73
2021/08/04 10:57:28;;;;;;;0.08;0.08;;;28.20;79.50;;;32.01;63.71;101300.41;4406691;39;97143;-72
2021/08/04 11:00:35;;;;;;;0.08;0.08;;;28.10;79.60;;;31.04;65.17;101300.56;4413423;39;97389;-73
2021/08/04 11:03:47;;;;;;;0.65;0.32;;;27.80;79.40;;;30.64;66.24;101306.53;4413353;39;97982;-72
2021/08/04 11:07:13;;;;;;;0.10;0.10;;;27.50;79.70;;;31.06;65.12;101298.16;4403186;39;97540;-72
2021/08/04 11:10:17;;;;;;;0.00;0.00;;;27.20;80.20;;;31.54;64.04;101290.03;4409347;39;97535;-73
2021/08/04 11:13:58;;;;;;;0.57;0.43;;;27.30;80.40;;;31.95;63.09;101288.28;4403657;39;96740;-73
2021/08/04 11:17:05;;;;;;;0.00;0.00;;;27.50;80.40;;;32.57;62.02;101296.97;4408239;39;97070;-73
2021/08/04 11:20:13;;;;;;;0.00;0.00;;;27.80;80.40;;;33.15;61.00;101292.19;4409077;39;96862;-75
2021/08/04 11:23:48;;;;;;;2.45;0.52;;;28.20;80.30;;;33.48;60.35;101294.41;4408170;39;96842;-75
2021/08/04 11:27:05;;;;;;;0.00;0.00;;;28.50;79.40;;;33.53;61.05;101299.41;4409557;39;97563;-75
2021/08/04 11:30:13;;;;;;;0.10;0.10;;;28.70;79.10;;;33.38;61.08;101294.72;4408419;39;96823;-75
2021/08/04 11:33:36;;;;;;;0.50;0.05;;;28.80;79.00;;;33.53;61.22;101284.72;4393037;39;97803;-76
2021/08/04 11:36:40;;;;;;;0.00;0.00;;;28.90;78.90;;;33.61;61.03;101281.28;4395262;39;97653;-75
2021/08/04 11:39:54;;;;;;;0.00;0.00;;;29.00;79.10;;;33.58;61.05;101284.16;4402180;39;96667;-74
2021/08/04 11:42:57;;;;;;;0.28;0.28;;;29.00;78.80;;;33.68;61.08;101283.84;4408001;39;97174;-74
2021/08/04 11:46:01;;;;;;;0.00;0.00;;;29.10;79.40;;;33.70;61.96;101277.84;4411032;39;96802;-74
2021/08/04 11:49:13;;;;;;;0.00;0.00;;;29.10;79.20;;;32.96;62.95;101274.50;4386991;39;96872;-73
2021/08/04 11:52:24;;;;;;;0.00;0.00;;;29.00;79.20;;;32.27;63.98;101277.19;4394783;39;97545;-74
2021/08/04 11:55:28;;;;;;;0.00;0.00;;;28.70;79.50;;;32.22;64.43;101272.16;4407407;39;97612;-74
2021/08/04 11:58:33;;;;;;;0.20;0.20;;;28.50;79.90;;;32.08;64.70;101271.72;4408257;39;96756;-74
2021/08/04 12:01:36;;;;;;;0.10;0.10;;;28.30;80.10;;;32.30;64.56;101276.31;4401304;39;97117;-73
2021/08/04 12:04:49;;;;;;;0.00;0.00;;;28.30;80.70;;;32.66;63.54;101271.38;4410343;39;97543;-73
2021/08/04 12:07:53;;;;;;;0.10;0.10;;;28.30;80.40;;;32.97;62.80;101275.25;4409928;39;97765;-73
2021/08/04 12:10:57;;;;;;;0.20;0.10;;;28.50;80.50;;;33.33;62.58;101276.59;4411244;39;96817;-73
2021/08/04 12:14:05;;;;;;;0.00;0.00;;;28.70;80.20;;;33.50;62.09;101257.81;4399534;39;97149;-73
2021/08/04 12:17:09;;;;;;;0.90;0.32;;;28.90;80.00;;;33.48;61.98;101261.03;4413045;39;97147;-74
2021/08/04 12:20:19;;;;;;;0.00;0.00;;;29.00;79.60;;;33.36;62.33;101267.34;4397195;39;97712;-75
2021/08/04 12:23:23;;;;;;;0.00;0.00;;;29.00;79.50;;;33.18;63.11;101267.13;4409998;39;101053;-74
2021/08/04 12:26:27;;;;;;;0.00;0.00;;;29.00;79.70;;;33.21;63.04;101268.22;4395319;39;97018;-73
2021/08/04 12:29:31;;;;;;;1.38;0.95;;;28.90;79.90;;;33.45;62.81;101269.47;4401252;39;99693;-74
2021/08/04 12:32:50;;;;;;;0.73;0.15;;;29.00;79.90;;;33.79;61.52;101255.72;4393462;39;97593;-74
2021/08/04 12:36:04;;;;;;;0.00;0.00;;;29.20;79.40;;;33.98;61.37;101258.22;4409228;39;96635;-74
2021/08/04 12:39:28;;;;;;;0.70;0.10;;;29.30;79.20;;;33.86;61.97;101249.91;4412042;39;97581;-73
2021/08/04 12:42:32;;;;;;;0.00;0.00;;;29.50;79.10;;;33.00;63.37;101261.28;4411145;39;98612;-73
2021/08/04 12:45:46;;;;;;;0.08;0.08;;;29.20;79.00;;;32.41;64.42;101257.38;4412847;39;97124;-74
2021/08/04 12:48:58;;;;;;;0.00;0.00;;;28.80;79.10;;;32.26;64.69;101256.22;4409553;39;99628;-73
2021/08/04 12:52:08;;;;;;;0.15;0.15;;;28.60;79.70;;;31.90;65.18;101260.28;4410926;39;96875;-73
2021/08/04 12:55:16;;;;;;;0.38;0.38;;;28.40;79.90;;;31.40;66.23;101251.56;4402311;39;97674;-74
2021/08/04 12:58:20;;;;;;;0.10;0.10;;;28.10;79.90;;;31.17;66.15;101244.13;4409627;39;96982;-74
2021/08/04 13:01:28;;;;;;;0.00;0.00;;;27.90;80.10;;;31.10;66.14;101247.06;4410208;39;97572;-75